createdAt,value
2023-06-19T00:01:17.868Z,16.00
2023-06-19T00:03:45.706Z,16.00
2023-06-19T00:06:13.828Z,15.96
2023-06-19T00:08:41.680Z,16.00
2023-06-19T00:11:09.840Z,16.00
2023-06-19T00:13:37.720Z,15.98
2023-06-19T00:16:05.893Z,15.98
2023-06-19T00:18:33.756Z,15.91
2023-06-19T00:21:01.851Z,15.86
2023-06-19T00:23:29.669Z,15.73
2023-06-19T00:25:57.753Z,15.79
2023-06-19T00:28:25.698Z,15.91
2023-06-19T00:30:53.842Z,15.86
2023-06-19T00:33:22.148Z,15.79
2023-06-19T00:35:53.242Z,15.76
2023-06-19T00:38:21.122Z,15.68
2023-06-19T00:40:49.314Z,15.64
2023-06-19T00:43:17.166Z,15.59
2023-06-19T00:45:45.298Z,15.60
2023-06-19T00:48:13.285Z,15.44
2023-06-19T00:50:41.404Z,15.36
2023-06-19T00:53:11.498Z,15.46
2023-06-19T00:55:39.685Z,15.66
2023-06-19T00:58:07.597Z,15.66
2023-06-19T01:00:35.725Z,15.49
2023-06-19T01:03:03.764Z,15.51
2023-06-19T01:05:32.172Z,15.52
2023-06-19T01:08:49.883Z,15.71
2023-06-19T01:11:26.468Z,15.65
2023-06-19T01:14:09.697Z,15.61
2023-06-19T01:16:38.661Z,15.52
2023-06-19T01:19:11.275Z,15.47
2023-06-19T01:21:39.470Z,15.51
2023-06-19T01:24:07.354Z,15.12
2023-06-19T01:26:35.854Z,15.25
2023-06-19T01:29:04.227Z,15.19
2023-06-19T01:31:37.929Z,15.45
2023-06-19T01:34:08.732Z,15.49
2023-06-19T01:36:37.313Z,15.51
2023-06-19T01:39:06.569Z,15.41
2023-06-19T01:41:35.324Z,15.39
2023-06-19T01:44:03.789Z,15.29
2023-06-19T01:46:32.034Z,15.18
2023-06-19T01:48:59.948Z,15.09
2023-06-19T01:51:28.057Z,14.98
2023-06-19T01:53:56.770Z,15.04
2023-06-19T01:56:24.922Z,15.02
2023-06-19T01:58:52.784Z,15.15
2023-06-19T02:01:20.911Z,14.78
2023-06-19T02:03:48.822Z,14.94
2023-06-19T02:06:17.137Z,14.99
2023-06-19T02:08:45.136Z,14.97
2023-06-19T02:11:13.300Z,15.00
2023-06-19T02:13:41.374Z,14.94
2023-06-19T02:16:09.536Z,14.70
2023-06-19T02:18:37.452Z,14.68
2023-06-19T02:21:05.623Z,14.60
2023-06-19T02:23:33.490Z,14.34
2023-06-19T02:26:01.698Z,14.15
2023-06-19T02:28:29.550Z,13.95
2023-06-19T02:30:57.893Z,14.09
2023-06-19T02:33:25.810Z,14.17
2023-06-19T02:35:53.920Z,14.20
2023-06-19T02:38:21.739Z,14.12
2023-06-19T02:40:49.846Z,13.89
2023-06-19T02:43:17.733Z,13.98
2023-06-19T02:45:45.884Z,14.11
2023-06-19T02:48:13.732Z,14.17
2023-06-19T02:50:41.876Z,14.21
2023-06-19T02:53:09.793Z,14.29
2023-06-19T02:55:37.999Z,14.27
2023-06-19T02:58:05.869Z,13.97
2023-06-19T03:00:55.654Z,13.98
2023-06-19T03:03:23.601Z,14.19
2023-06-19T03:05:52.038Z,14.16
2023-06-19T03:08:19.880Z,14.28
2023-06-19T03:10:48.046Z,14.37
2023-06-19T03:13:15.954Z,14.42
2023-06-19T03:15:44.213Z,14.44
2023-06-19T03:18:12.139Z,14.47
2023-06-19T03:20:40.369Z,14.62
2023-06-19T03:23:08.329Z,14.74
2023-06-19T03:25:37.540Z,14.84
2023-06-19T03:28:05.434Z,14.79
2023-06-19T03:30:33.556Z,15.17
2023-06-19T03:33:01.408Z,15.46
2023-06-19T03:35:29.569Z,15.24
2023-06-19T03:37:57.407Z,15.39
2023-06-19T03:40:25.732Z,15.57
2023-06-19T03:42:53.781Z,15.76
2023-06-19T03:45:21.922Z,16.24
2023-06-19T03:47:49.786Z,16.84
